sensor_id;sensor_type;location;lat;lon;timestamp;P1;durP1;ratioP1;P2;durP2;ratioP2
19798;SDS011;10059;59.850;10.454;2023-01-15T00:01:25;1.20;;;1.10;;
19798;SDS011;10059;59.850;10.454;2023-01-15T00:03:54;1.85;;;1.50;;
19798;SDS011;10059;59.850;10.454;2023-01-15T00:06:24;4.70;;;2.27;;
19798;SDS011;10059;59.850;10.454;2023-01-15T00:08:52;3.33;;;2.10;;
19798;SDS011;10059;59.850;10.454;2023-01-15T00:11:19;1.37;;;1.27;;
19798;SDS011;10059;59.850;10.454;2023-01-15T00:13:46;4.80;;;2.00;;
19798;SDS011;10059;59.850;10.454;2023-01-15T00:16:14;1.50;;;1.00;;
19798;SDS011;10059;59.850;10.454;2023-01-15T00:18:42;2.73;;;1.60;;
19798;SDS011;10059;59.850;10.454;2023-01-15T00:21:15;2.10;;;1.37;;
19798;SDS011;10059;59.850;10.454;2023-01-15T00:23:42;1.10;;;1.00;;
19798;SDS011;10059;59.850;10.454;2023-01-15T00:26:27;6.33;;;2.63;;
19798;SDS011;10059;59.850;10.454;2023-01-15T00:29:13;10.00;;;3.60;;
19798;SDS011;10059;59.850;10.454;2023-01-15T00:31:41;4.30;;;2.13;;
19798;SDS011;10059;59.850;10.454;2023-01-15T00:34:09;0.93;;;0.80;;
19798;SDS011;10059;59.850;10.454;2023-01-15T00:36:37;1.17;;;1.00;;
19798;SDS011;10059;59.850;10.454;2023-01-15T00:39:04;1.13;;;1.03;;
19798;SDS011;10059;59.850;10.454;2023-01-15T00:41:31;3.00;;;2.03;;
19798;SDS011;10059;59.850;10.454;2023-01-15T00:43:58;0.77;;;0.70;;
19798;SDS011;10059;59.850;10.454;2023-01-15T00:46:25;1.53;;;1.00;;
19798;SDS011;10059;59.850;10.454;2023-01-15T00:48:52;1.20;;;0.90;;
19798;SDS011;10059;59.850;10.454;2023-01-15T00:51:19;2.17;;;1.80;;
19798;SDS011;10059;59.850;10.454;2023-01-15T00:53:47;1.23;;;0.90;;
19798;SDS011;10059;59.850;10.454;2023-01-15T00:56:14;0.70;;;0.70;;
19798;SDS011;10059;59.850;10.454;2023-01-15T00:58:41;0.87;;;0.80;;
19798;SDS011;10059;59.850;10.454;2023-01-15T01:01:08;0.70;;;0.70;;
19798;SDS011;10059;59.850;10.454;2023-01-15T01:03:34;1.23;;;0.90;;
19798;SDS011;10059;59.850;10.454;2023-01-15T01:06:01;0.80;;;0.80;;
19798;SDS011;10059;59.850;10.454;2023-01-15T01:08:29;1.13;;;1.00;;
19798;SDS011;10059;59.850;10.454;2023-01-15T01:11:04;1.30;;;1.00;;
19798;SDS011;10059;59.850;10.454;2023-01-15T01:13:32;1.10;;;1.00;;
19798;SDS011;10059;59.850;10.454;2023-01-15T01:15:59;2.90;;;1.10;;
19798;SDS011;10059;59.850;10.454;2023-01-15T01:18:26;4.30;;;2.97;;
19798;SDS011;10059;59.850;10.454;2023-01-15T01:20:54;1.63;;;0.90;;
19798;SDS011;10059;59.850;10.454;2023-01-15T01:23:21;2.43;;;1.20;;
19798;SDS011;10059;59.850;10.454;2023-01-15T01:25:48;1.20;;;0.80;;
19798;SDS011;10059;59.850;10.454;2023-01-15T01:28:17;1.23;;;0.90;;
19798;SDS011;10059;59.850;10.454;2023-01-15T01:30:43;2.00;;;1.50;;
19798;SDS011;10059;59.850;10.454;2023-01-15T01:33:10;2.80;;;1.07;;
19798;SDS011;10059;59.850;10.454;2023-01-15T01:35:37;1.60;;;1.20;;
19798;SDS011;10059;59.850;10.454;2023-01-15T01:38:04;1.37;;;1.00;;
19798;SDS011;10059;59.850;10.454;2023-01-15T01:40:31;1.13;;;1.00;;
19798;SDS011;10059;59.850;10.454;2023-01-15T01:42:57;11.67;;;3.80;;
19798;SDS011;10059;59.850;10.454;2023-01-15T01:45:27;2.67;;;1.00;;
19798;SDS011;10059;59.850;10.454;2023-01-15T01:47:58;0.90;;;0.90;;
19798;SDS011;10059;59.850;10.454;2023-01-15T01:50:28;0.60;;;0.60;;
19798;SDS011;10059;59.850;10.454;2023-01-15T01:52:58;1.30;;;1.20;;
19798;SDS011;10059;59.850;10.454;2023-01-15T01:55:28;3.20;;;1.00;;
19798;SDS011;10059;59.850;10.454;2023-01-15T01:57:58;1.40;;;1.13;;
19798;SDS011;10059;59.850;10.454;2023-01-15T02:00:28;5.80;;;1.07;;
19798;SDS011;10059;59.850;10.454;2023-01-15T02:02:56;4.70;;;0.90;;
19798;SDS011;10059;59.850;10.454;2023-01-15T02:05:26;1.13;;;0.70;;
19798;SDS011;10059;59.850;10.454;2023-01-15T02:07:56;2.93;;;0.90;;
19798;SDS011;10059;59.850;10.454;2023-01-15T02:10:23;2.03;;;0.80;;
19798;SDS011;10059;59.850;10.454;2023-01-15T02:12:52;1.20;;;0.70;;
19798;SDS011;10059;59.850;10.454;2023-01-15T02:15:25;2.77;;;0.90;;
19798;SDS011;10059;59.850;10.454;2023-01-15T02:18:00;0.90;;;0.70;;
19798;SDS011;10059;59.850;10.454;2023-01-15T02:20:33;3.10;;;0.77;;
19798;SDS011;10059;59.850;10.454;2023-01-15T02:26:21;1.23;;;1.10;;
19798;SDS011;10059;59.850;10.454;2023-01-15T02:28:58;5.53;;;0.90;;
19798;SDS011;10059;59.850;10.454;2023-01-15T02:31:28;2.67;;;1.10;;
19798;SDS011;10059;59.850;10.454;2023-01-15T02:34:00;0.70;;;0.70;;
19798;SDS011;10059;59.850;10.454;2023-01-15T02:36:32;1.17;;;0.70;;
19798;SDS011;10059;59.850;10.454;2023-01-15T02:39:02;1.47;;;1.17;;
19798;SDS011;10059;59.850;10.454;2023-01-15T02:41:35;0.50;;;0.50;;
19798;SDS011;10059;59.850;10.454;2023-01-15T02:44:07;0.50;;;0.40;;
19798;SDS011;10059;59.850;10.454;2023-01-15T02:46:36;0.40;;;0.40;;
19798;SDS011;10059;59.850;10.454;2023-01-15T02:49:05;1.80;;;1.50;;
19798;SDS011;10059;59.850;10.454;2023-01-15T02:51:36;0.50;;;0.50;;
19798;SDS011;10059;59.850;10.454;2023-01-15T02:54:08;0.70;;;0.70;;
19798;SDS011;10059;59.850;10.454;2023-01-15T02:56:38;0.60;;;0.60;;
19798;SDS011;10059;59.850;10.454;2023-01-15T02:59:09;7.33;;;0.60;;
19798;SDS011;10059;59.850;10.454;2023-01-15T03:01:40;0.97;;;0.50;;
19798;SDS011;10059;59.850;10.454;2023-01-15T03:04:12;2.30;;;0.73;;
19798;SDS011;10059;59.850;10.454;2023-01-15T03:06:42;0.50;;;0.50;;
19798;SDS011;10059;59.850;10.454;2023-01-15T03:09:14;0.50;;;0.50;;
19798;SDS011;10059;59.850;10.454;2023-01-15T03:11:43;0.60;;;0.60;;
19798;SDS011;10059;59.850;10.454;2023-01-15T03:14:18;0.50;;;0.50;;
19798;SDS011;10059;59.850;10.454;2023-01-15T03:16:48;0.50;;;0.50;;
19798;SDS011;10059;59.850;10.454;2023-01-15T03:19:19;0.47;;;0.47;;
19798;SDS011;10059;59.850;10.454;2023-01-15T03:21:52;0.53;;;0.50;;
19798;SDS011;10059;59.850;10.454;2023-01-15T03:24:28;1.33;;;0.60;;
19798;SDS011;10059;59.850;10.454;2023-01-15T03:26:58;0.50;;;0.50;;
19798;SDS011;10059;59.850;10.454;2023-01-15T03:29:28;0.40;;;0.40;;
19798;SDS011;10059;59.850;10.454;2023-01-15T03:31:58;0.50;;;0.50;;
19798;SDS011;10059;59.850;10.454;2023-01-15T03:34:25;0.40;;;0.40;;
19798;SDS011;10059;59.850;10.454;2023-01-15T03:36:58;0.40;;;0.40;;
19798;SDS011;10059;59.850;10.454;2023-01-15T03:39:25;0.30;;;0.30;;
19798;SDS011;10059;59.850;10.454;2023-01-15T03:41:54;0.50;;;0.50;;
19798;SDS011;10059;59.850;10.454;2023-01-15T03:44:34;1.83;;;0.50;;
19798;SDS011;10059;59.850;10.454;2023-01-15T03:47:09;0.47;;;0.40;;
19798;SDS011;10059;59.850;10.454;2023-01-15T03:49:47;0.60;;;0.60;;
19798;SDS011;10059;59.850;10.454;2023-01-15T03:52:23;0.50;;;0.50;;
19798;SDS011;10059;59.850;10.454;2023-01-15T03:54:57;1.00;;;0.50;;
19798;SDS011;10059;59.850;10.454;2023-01-15T03:57:35;0.80;;;0.80;;
19798;SDS011;10059;59.850;10.454;2023-01-15T04:00:08;0.50;;;0.50;;
19798;SDS011;10059;59.850;10.454;2023-01-15T04:02:39;0.80;;;0.60;;
19798;SDS011;10059;59.850;10.454;2023-01-15T04:05:07;0.40;;;0.40;;
19798;SDS011;10059;59.850;10.454;2023-01-15T04:07:34;0.50;;;0.50;;
19798;SDS011;10059;59.850;10.454;2023-01-15T04:10:01;0.80;;;0.50;;
19798;SDS011;10059;59.850;10.454;2023-01-15T04:12:30;0.63;;;0.40;;
19798;SDS011;10059;59.850;10.454;2023-01-15T04:14:58;3.20;;;1.53;;
19798;SDS011;10059;59.850;10.454;2023-01-15T04:17:26;6.33;;;2.77;;
19798;SDS011;10059;59.850;10.454;2023-01-15T04:19:53;9.00;;;3.07;;
19798;SDS011;10059;59.850;10.454;2023-01-15T04:22:19;3.93;;;1.70;;
19798;SDS011;10059;59.850;10.454;2023-01-15T04:24:46;1.73;;;0.80;;
19798;SDS011;10059;59.850;10.454;2023-01-15T04:27:13;3.10;;;0.80;;
19798;SDS011;10059;59.850;10.454;2023-01-15T04:29:40;0.63;;;0.60;;
19798;SDS011;10059;59.850;10.454;2023-01-15T04:32:07;1.23;;;0.60;;
19798;SDS011;10059;59.850;10.454;2023-01-15T04:34:35;1.87;;;0.57;;
19798;SDS011;10059;59.850;10.454;2023-01-15T04:37:02;0.93;;;0.50;;
19798;SDS011;10059;59.850;10.454;2023-01-15T04:39:29;0.90;;;0.50;;
19798;SDS011;10059;59.850;10.454;2023-01-15T04:41:56;0.73;;;0.60;;
19798;SDS011;10059;59.850;10.454;2023-01-15T04:44:40;1.47;;;0.70;;
19798;SDS011;10059;59.850;10.454;2023-01-15T04:47:06;1.70;;;0.60;;
19798;SDS011;10059;59.850;10.454;2023-01-15T04:49:35;1.33;;;0.70;;
19798;SDS011;10059;59.850;10.454;2023-01-15T04:52:02;0.60;;;0.60;;
19798;SDS011;10059;59.850;10.454;2023-01-15T04:54:29;1.30;;;0.70;;
19798;SDS011;10059;59.850;10.454;2023-01-15T04:56:56;1.13;;;0.60;;
19798;SDS011;10059;59.850;10.454;2023-01-15T04:59:23;0.60;;;0.60;;
19798;SDS011;10059;59.850;10.454;2023-01-15T05:01:52;0.70;;;0.70;;
19798;SDS011;10059;59.850;10.454;2023-01-15T05:04:19;1.13;;;0.60;;
19798;SDS011;10059;59.850;10.454;2023-01-15T05:06:48;0.43;;;0.43;;
19798;SDS011;10059;59.850;10.454;2023-01-15T05:09:15;0.73;;;0.60;;
19798;SDS011;10059;59.850;10.454;2023-01-15T05:11:42;0.80;;;0.60;;
19798;SDS011;10059;59.850;10.454;2023-01-15T05:14:09;1.63;;;0.50;;
19798;SDS011;10059;59.850;10.454;2023-01-15T05:16:36;4.47;;;0.50;;
19798;SDS011;10059;59.850;10.454;2023-01-15T05:19:04;0.50;;;0.50;;
19798;SDS011;10059;59.850;10.454;2023-01-15T05:21:33;1.70;;;0.93;;
19798;SDS011;10059;59.850;10.454;2023-01-15T05:24:03;3.13;;;2.00;;
19798;SDS011;10059;59.850;10.454;2023-01-15T05:26:33;2.17;;;1.47;;
19798;SDS011;10059;59.850;10.454;2023-01-15T05:29:01;2.03;;;1.40;;
19798;SDS011;10059;59.850;10.454;2023-01-15T05:31:28;2.00;;;1.40;;
19798;SDS011;10059;59.850;10.454;2023-01-15T05:33:57;2.03;;;1.33;;
19798;SDS011;10059;59.850;10.454;2023-01-15T05:36:25;2.93;;;1.43;;
19798;SDS011;10059;59.850;10.454;2023-01-15T05:38:53;2.50;;;1.30;;
19798;SDS011;10059;59.850;10.454;2023-01-15T05:41:25;2.00;;;1.23;;
19798;SDS011;10059;59.850;10.454;2023-01-15T05:44:10;1.70;;;1.20;;
19798;SDS011;10059;59.850;10.454;2023-01-15T05:46:38;1.00;;;0.80;;
19798;SDS011;10059;59.850;10.454;2023-01-15T05:49:06;1.43;;;0.93;;
19798;SDS011;10059;59.850;10.454;2023-01-15T05:51:35;0.83;;;0.67;;
19798;SDS011;10059;59.850;10.454;2023-01-15T05:54:02;2.40;;;0.77;;
19798;SDS011;10059;59.850;10.454;2023-01-15T05:56:31;0.70;;;0.70;;
19798;SDS011;10059;59.850;10.454;2023-01-15T05:59:00;1.27;;;0.80;;
19798;SDS011;10059;59.850;10.454;2023-01-15T06:01:27;0.80;;;0.80;;
19798;SDS011;10059;59.850;10.454;2023-01-15T06:03:56;0.93;;;0.83;;
19798;SDS011;10059;59.850;10.454;2023-01-15T06:06:23;0.50;;;0.50;;
19798;SDS011;10059;59.850;10.454;2023-01-15T06:08:50;0.50;;;0.50;;
19798;SDS011;10059;59.850;10.454;2023-01-15T06:11:17;0.50;;;0.50;;
19798;SDS011;10059;59.850;10.454;2023-01-15T06:13:45;0.93;;;0.70;;
19798;SDS011;10059;59.850;10.454;2023-01-15T06:16:12;0.67;;;0.67;;
19798;SDS011;10059;59.850;10.454;2023-01-15T06:18:39;0.70;;;0.70;;
19798;SDS011;10059;59.850;10.454;2023-01-15T06:21:07;0.70;;;0.70;;
19798;SDS011;10059;59.850;10.454;2023-01-15T06:23:35;1.43;;;1.13;;
19798;SDS011;10059;59.850;10.454;2023-01-15T06:26:05;2.00;;;1.23;;
19798;SDS011;10059;59.850;10.454;2023-01-15T06:28:33;3.00;;;1.83;;
19798;SDS011;10059;59.850;10.454;2023-01-15T06:31:04;3.03;;;1.87;;
19798;SDS011;10059;59.850;10.454;2023-01-15T06:33:31;1.60;;;1.20;;
19798;SDS011;10059;59.850;10.454;2023-01-15T06:36:01;0.83;;;0.60;;
19798;SDS011;10059;59.850;10.454;2023-01-15T06:38:28;1.10;;;0.70;;
19798;SDS011;10059;59.850;10.454;2023-01-15T06:40:56;1.00;;;0.80;;
19798;SDS011;10059;59.850;10.454;2023-01-15T06:43:24;8.80;;;5.83;;
19798;SDS011;10059;59.850;10.454;2023-01-15T06:46:09;2.20;;;1.67;;
19798;SDS011;10059;59.850;10.454;2023-01-15T06:48:54;1.70;;;1.13;;
19798;SDS011;10059;59.850;10.454;2023-01-15T06:51:20;3.90;;;2.20;;
19798;SDS011;10059;59.850;10.454;2023-01-15T06:53:48;3.43;;;1.60;;
19798;SDS011;10059;59.850;10.454;2023-01-15T06:56:14;3.70;;;1.90;;
19798;SDS011;10059;59.850;10.454;2023-01-15T06:58:41;2.17;;;1.50;;
19798;SDS011;10059;59.850;10.454;2023-01-15T07:01:10;2.53;;;1.13;;
19798;SDS011;10059;59.850;10.454;2023-01-15T07:03:38;1.40;;;0.87;;
19798;SDS011;10059;59.850;10.454;2023-01-15T07:06:05;2.37;;;1.80;;
19798;SDS011;10059;59.850;10.454;2023-01-15T07:08:33;2.13;;;1.20;;
19798;SDS011;10059;59.850;10.454;2023-01-15T07:11:03;3.77;;;1.60;;
19798;SDS011;10059;59.850;10.454;2023-01-15T07:13:30;2.83;;;1.20;;
19798;SDS011;10059;59.850;10.454;2023-01-15T07:15:58;1.77;;;1.10;;
19798;SDS011;10059;59.850;10.454;2023-01-15T07:18:27;2.63;;;1.30;;
19798;SDS011;10059;59.850;10.454;2023-01-15T07:20:55;1.43;;;1.20;;
19798;SDS011;10059;59.850;10.454;2023-01-15T07:23:23;3.57;;;1.73;;
19798;SDS011;10059;59.850;10.454;2023-01-15T07:25:50;3.20;;;1.70;;
19798;SDS011;10059;59.850;10.454;2023-01-15T07:28:18;5.87;;;2.80;;
19798;SDS011;10059;59.850;10.454;2023-01-15T07:30:45;12.47;;;4.80;;
19798;SDS011;10059;59.850;10.454;2023-01-15T07:33:12;8.97;;;4.00;;
19798;SDS011;10059;59.850;10.454;2023-01-15T07:35:40;9.60;;;4.70;;
19798;SDS011;10059;59.850;10.454;2023-01-15T07:38:07;7.93;;;4.03;;
19798;SDS011;10059;59.850;10.454;2023-01-15T07:40:34;6.57;;;4.00;;
19798;SDS011;10059;59.850;10.454;2023-01-15T07:43:02;7.67;;;4.33;;
19798;SDS011;10059;59.850;10.454;2023-01-15T07:45:46;16.97;;;7.53;;
19798;SDS011;10059;59.850;10.454;2023-01-15T07:48:31;14.33;;;5.77;;
19798;SDS011;10059;59.850;10.454;2023-01-15T07:51:21;14.77;;;8.97;;
19798;SDS011;10059;59.850;10.454;2023-01-15T07:53:48;10.40;;;6.53;;
19798;SDS011;10059;59.850;10.454;2023-01-15T07:56:15;7.63;;;4.80;;
19798;SDS011;10059;59.850;10.454;2023-01-15T07:58:42;9.37;;;4.30;;
19798;SDS011;10059;59.850;10.454;2023-01-15T08:01:13;7.60;;;3.47;;
19798;SDS011;10059;59.850;10.454;2023-01-15T08:03:40;9.00;;;4.17;;
19798;SDS011;10059;59.850;10.454;2023-01-15T08:06:07;12.03;;;5.70;;
19798;SDS011;10059;59.850;10.454;2023-01-15T08:08:35;36.37;;;15.90;;
19798;SDS011;10059;59.850;10.454;2023-01-15T08:11:02;10.97;;;5.73;;
19798;SDS011;10059;59.850;10.454;2023-01-15T08:13:46;5.27;;;3.07;;
19798;SDS011;10059;59.850;10.454;2023-01-15T08:16:30;5.17;;;2.10;;
19798;SDS011;10059;59.850;10.454;2023-01-15T08:19:00;2.70;;;2.20;;
19798;SDS011;10059;59.850;10.454;2023-01-15T08:21:28;7.50;;;2.23;;
19798;SDS011;10059;59.850;10.454;2023-01-15T08:23:56;5.07;;;3.17;;
19798;SDS011;10059;59.850;10.454;2023-01-15T08:26:23;3.83;;;2.50;;
19798;SDS011;10059;59.850;10.454;2023-01-15T08:28:49;5.37;;;2.80;;
19798;SDS011;10059;59.850;10.454;2023-01-15T08:31:16;6.60;;;2.80;;
19798;SDS011;10059;59.850;10.454;2023-01-15T08:33:43;3.47;;;2.40;;
19798;SDS011;10059;59.850;10.454;2023-01-15T08:36:10;6.93;;;3.50;;
19798;SDS011;10059;59.850;10.454;2023-01-15T08:38:37;3.40;;;2.40;;
19798;SDS011;10059;59.850;10.454;2023-01-15T08:41:05;3.77;;;2.53;;
19798;SDS011;10059;59.850;10.454;2023-01-15T08:43:33;3.23;;;2.40;;
19798;SDS011;10059;59.850;10.454;2023-01-15T08:46:00;3.57;;;2.47;;
19798;SDS011;10059;59.850;10.454;2023-01-15T08:48:29;4.70;;;2.90;;
19798;SDS011;10059;59.850;10.454;2023-01-15T08:50:56;4.33;;;2.57;;
19798;SDS011;10059;59.850;10.454;2023-01-15T08:53:23;4.17;;;2.80;;
19798;SDS011;10059;59.850;10.454;2023-01-15T08:55:50;7.00;;;4.40;;
19798;SDS011;10059;59.850;10.454;2023-01-15T08:58:18;12.13;;;6.80;;
19798;SDS011;10059;59.850;10.454;2023-01-15T09:00:45;14.97;;;9.40;;
19798;SDS011;10059;59.850;10.454;2023-01-15T09:03:13;13.63;;;8.43;;
19798;SDS011;10059;59.850;10.454;2023-01-15T09:05:39;17.90;;;10.03;;
19798;SDS011;10059;59.850;10.454;2023-01-15T09:08:06;18.73;;;10.70;;
19798;SDS011;10059;59.850;10.454;2023-01-15T09:10:33;14.97;;;7.70;;
19798;SDS011;10059;59.850;10.454;2023-01-15T09:13:00;13.20;;;6.77;;
19798;SDS011;10059;59.850;10.454;2023-01-15T09:15:29;18.23;;;10.93;;
19798;SDS011;10059;59.850;10.454;2023-01-15T09:17:58;13.83;;;7.70;;
19798;SDS011;10059;59.850;10.454;2023-01-15T09:20:25;19.47;;;11.47;;
19798;SDS011;10059;59.850;10.454;2023-01-15T09:22:52;16.73;;;8.67;;
19798;SDS011;10059;59.850;10.454;2023-01-15T09:25:18;17.23;;;8.83;;
19798;SDS011;10059;59.850;10.454;2023-01-15T09:27:48;16.53;;;8.80;;
19798;SDS011;10059;59.850;10.454;2023-01-15T09:30:15;15.10;;;8.80;;
19798;SDS011;10059;59.850;10.454;2023-01-15T09:32:45;17.27;;;7.43;;
19798;SDS011;10059;59.850;10.454;2023-01-15T09:35:12;15.47;;;7.87;;
19798;SDS011;10059;59.850;10.454;2023-01-15T09:37:39;18.00;;;8.80;;
19798;SDS011;10059;59.850;10.454;2023-01-15T09:40:07;14.57;;;7.77;;
19798;SDS011;10059;59.850;10.454;2023-01-15T09:42:45;14.67;;;8.67;;
19798;SDS011;10059;59.850;10.454;2023-01-15T09:45:21;14.27;;;8.40;;
19798;SDS011;10059;59.850;10.454;2023-01-15T09:47:59;16.50;;;9.40;;
19798;SDS011;10059;59.850;10.454;2023-01-15T09:50:39;10.93;;;6.97;;
19798;SDS011;10059;59.850;10.454;2023-01-15T09:53:19;13.90;;;7.77;;
19798;SDS011;10059;59.850;10.454;2023-01-15T09:56:02;12.10;;;7.80;;
19798;SDS011;10059;59.850;10.454;2023-01-15T09:58:31;8.83;;;4.60;;
19798;SDS011;10059;59.850;10.454;2023-01-15T10:01:00;5.00;;;3.63;;
19798;SDS011;10059;59.850;10.454;2023-01-15T10:03:30;8.17;;;4.70;;
19798;SDS011;10059;59.850;10.454;2023-01-15T10:06:03;6.47;;;3.40;;
19798;SDS011;10059;59.850;10.454;2023-01-15T10:08:39;5.37;;;3.20;;
19798;SDS011;10059;59.850;10.454;2023-01-15T10:11:18;4.90;;;3.30;;
19798;SDS011;10059;59.850;10.454;2023-01-15T10:14:14;5.57;;;3.60;;
19798;SDS011;10059;59.850;10.454;2023-01-15T10:16:55;11.43;;;5.87;;
19798;SDS011;10059;59.850;10.454;2023-01-15T10:19:24;16.63;;;7.67;;
19798;SDS011;10059;59.850;10.454;2023-01-15T10:21:52;19.97;;;9.23;;
19798;SDS011;10059;59.850;10.454;2023-01-15T10:24:26;27.80;;;10.63;;
19798;SDS011;10059;59.850;10.454;2023-01-15T10:26:58;19.00;;;9.03;;
19798;SDS011;10059;59.850;10.454;2023-01-15T10:29:25;21.63;;;10.13;;
19798;SDS011;10059;59.850;10.454;2023-01-15T10:32:00;21.30;;;10.40;;
19798;SDS011;10059;59.850;10.454;2023-01-15T10:34:40;27.33;;;11.00;;
19798;SDS011;10059;59.850;10.454;2023-01-15T10:37:33;23.53;;;11.10;;
19798;SDS011;10059;59.850;10.454;2023-01-15T10:43:01;15.07;;;8.17;;
19798;SDS011;10059;59.850;10.454;2023-01-15T10:45:39;17.13;;;8.67;;
19798;SDS011;10059;59.850;10.454;2023-01-15T10:48:13;14.37;;;8.00;;
19798;SDS011;10059;59.850;10.454;2023-01-15T10:50:48;15.40;;;8.97;;
19798;SDS011;10059;59.850;10.454;2023-01-15T10:53:16;17.20;;;9.30;;
19798;SDS011;10059;59.850;10.454;2023-01-15T10:55:54;20.53;;;10.23;;
19798;SDS011;10059;59.850;10.454;2023-01-15T10:58:26;20.20;;;11.60;;
19798;SDS011;10059;59.850;10.454;2023-01-15T11:00:59;25.57;;;13.17;;
19798;SDS011;10059;59.850;10.454;2023-01-15T11:03:31;34.23;;;20.10;;
19798;SDS011;10059;59.850;10.454;2023-01-15T11:06:03;34.70;;;20.60;;
19798;SDS011;10059;59.850;10.454;2023-01-15T11:08:36;28.07;;;17.53;;
19798;SDS011;10059;59.850;10.454;2023-01-15T11:11:17;18.67;;;12.37;;
19798;SDS011;10059;59.850;10.454;2023-01-15T11:13:51;21.50;;;13.47;;
19798;SDS011;10059;59.850;10.454;2023-01-15T11:16:36;18.23;;;11.87;;
19798;SDS011;10059;59.850;10.454;2023-01-15T11:19:24;139.83;;;59.90;;
19798;SDS011;10059;59.850;10.454;2023-01-15T11:22:05;105.13;;;45.07;;
19798;SDS011;10059;59.850;10.454;2023-01-15T11:24:37;96.07;;;43.37;;
19798;SDS011;10059;59.850;10.454;2023-01-15T11:27:12;35.80;;;19.13;;
19798;SDS011;10059;59.850;10.454;2023-01-15T11:29:42;71.83;;;35.70;;
19798;SDS011;10059;59.850;10.454;2023-01-15T11:32:17;52.97;;;26.00;;
19798;SDS011;10059;59.850;10.454;2023-01-15T11:34:51;48.30;;;24.60;;
19798;SDS011;10059;59.850;10.454;2023-01-15T11:37:20;51.70;;;26.37;;
19798;SDS011;10059;59.850;10.454;2023-01-15T11:39:51;51.43;;;26.37;;
19798;SDS011;10059;59.850;10.454;2023-01-15T11:42:19;48.93;;;24.53;;
19798;SDS011;10059;59.850;10.454;2023-01-15T11:45:10;50.67;;;25.23;;
19798;SDS011;10059;59.850;10.454;2023-01-15T11:47:56;42.73;;;21.37;;
19798;SDS011;10059;59.850;10.454;2023-01-15T11:50:46;29.60;;;16.47;;
19798;SDS011;10059;59.850;10.454;2023-01-15T11:53:17;35.90;;;19.27;;
19798;SDS011;10059;59.850;10.454;2023-01-15T11:55:52;35.17;;;18.63;;
19798;SDS011;10059;59.850;10.454;2023-01-15T11:58:24;30.47;;;17.30;;
19798;SDS011;10059;59.850;10.454;2023-01-15T12:00:52;28.27;;;16.20;;
19798;SDS011;10059;59.850;10.454;2023-01-15T12:03:21;27.60;;;16.90;;
19798;SDS011;10059;59.850;10.454;2023-01-15T12:05:53;25.33;;;15.23;;
19798;SDS011;10059;59.850;10.454;2023-01-15T12:08:27;25.30;;;14.87;;
19798;SDS011;10059;59.850;10.454;2023-01-15T12:11:06;22.93;;;13.73;;
19798;SDS011;10059;59.850;10.454;2023-01-15T12:13:43;22.37;;;13.57;;
19798;SDS011;10059;59.850;10.454;2023-01-15T12:16:20;20.03;;;12.63;;
19798;SDS011;10059;59.850;10.454;2023-01-15T12:18:55;21.60;;;13.03;;
19798;SDS011;10059;59.850;10.454;2023-01-15T12:24:30;26.53;;;14.93;;
19798;SDS011;10059;59.850;10.454;2023-01-15T12:27:32;24.67;;;14.40;;
19798;SDS011;10059;59.850;10.454;2023-01-15T12:30:13;21.13;;;12.10;;
19798;SDS011;10059;59.850;10.454;2023-01-15T12:32:49;22.57;;;12.10;;
19798;SDS011;10059;59.850;10.454;2023-01-15T12:35:31;23.73;;;13.10;;
19798;SDS011;10059;59.850;10.454;2023-01-15T12:38:02;26.10;;;13.87;;
19798;SDS011;10059;59.850;10.454;2023-01-15T12:40:42;22.63;;;12.87;;
19798;SDS011;10059;59.850;10.454;2023-01-15T12:43:14;26.23;;;15.27;;
19798;SDS011;10059;59.850;10.454;2023-01-15T12:46:05;23.07;;;11.10;;
19798;SDS011;10059;59.850;10.454;2023-01-15T12:48:38;17.37;;;10.20;;
19798;SDS011;10059;59.850;10.454;2023-01-15T12:51:12;20.37;;;11.67;;
19798;SDS011;10059;59.850;10.454;2023-01-15T12:53:43;16.57;;;9.97;;
19798;SDS011;10059;59.850;10.454;2023-01-15T12:56:18;23.43;;;11.53;;
19798;SDS011;10059;59.850;10.454;2023-01-15T12:58:51;17.07;;;10.17;;
19798;SDS011;10059;59.850;10.454;2023-01-15T13:01:21;16.90;;;8.90;;
19798;SDS011;10059;59.850;10.454;2023-01-15T13:03:57;13.67;;;8.30;;
19798;SDS011;10059;59.850;10.454;2023-01-15T13:06:32;15.23;;;8.33;;
19798;SDS011;10059;59.850;10.454;2023-01-15T13:09:01;12.57;;;7.83;;
19798;SDS011;10059;59.850;10.454;2023-01-15T13:11:32;12.63;;;8.10;;
19798;SDS011;10059;59.850;10.454;2023-01-15T13:13:59;14.63;;;8.30;;
19798;SDS011;10059;59.850;10.454;2023-01-15T13:16:31;18.37;;;10.53;;
19798;SDS011;10059;59.850;10.454;2023-01-15T13:21:58;32.30;;;14.83;;
19798;SDS011;10059;59.850;10.454;2023-01-15T13:24:46;42.07;;;19.40;;
19798;SDS011;10059;59.850;10.454;2023-01-15T13:27:30;20.33;;;10.50;;
19798;SDS011;10059;59.850;10.454;2023-01-15T13:30:15;17.47;;;9.60;;
19798;SDS011;10059;59.850;10.454;2023-01-15T13:33:03;18.13;;;10.27;;
19798;SDS011;10059;59.850;10.454;2023-01-15T13:35:39;14.07;;;8.73;;
19798;SDS011;10059;59.850;10.454;2023-01-15T13:38:10;17.37;;;10.00;;
19798;SDS011;10059;59.850;10.454;2023-01-15T13:40:42;15.53;;;9.03;;
19798;SDS011;10059;59.850;10.454;2023-01-15T13:43:21;16.90;;;9.10;;
19798;SDS011;10059;59.850;10.454;2023-01-15T13:45:54;15.97;;;9.20;;
19798;SDS011;10059;59.850;10.454;2023-01-15T13:48:24;17.63;;;9.63;;
19798;SDS011;10059;59.850;10.454;2023-01-15T13:50:55;22.47;;;12.73;;
19798;SDS011;10059;59.850;10.454;2023-01-15T13:53:25;20.93;;;11.57;;
19798;SDS011;10059;59.850;10.454;2023-01-15T13:55:54;19.80;;;11.43;;
19798;SDS011;10059;59.850;10.454;2023-01-15T13:58:28;21.17;;;11.90;;
19798;SDS011;10059;59.850;10.454;2023-01-15T14:01:00;18.50;;;9.93;;
19798;SDS011;10059;59.850;10.454;2023-01-15T14:03:32;25.03;;;11.77;;
19798;SDS011;10059;59.850;10.454;2023-01-15T14:06:02;20.00;;;10.23;;
19798;SDS011;10059;59.850;10.454;2023-01-15T14:08:36;14.60;;;8.43;;
19798;SDS011;10059;59.850;10.454;2023-01-15T14:11:03;15.47;;;8.80;;
19798;SDS011;10059;59.850;10.454;2023-01-15T14:16:35;15.33;;;8.17;;
19798;SDS011;10059;59.850;10.454;2023-01-15T14:19:19;17.47;;;9.47;;
19798;SDS011;10059;59.850;10.454;2023-01-15T14:21:56;14.30;;;8.47;;
19798;SDS011;10059;59.850;10.454;2023-01-15T14:24:44;14.50;;;8.77;;
19798;SDS011;10059;59.850;10.454;2023-01-15T14:27:27;15.33;;;9.63;;
19798;SDS011;10059;59.850;10.454;2023-01-15T14:30:15;15.40;;;9.07;;
19798;SDS011;10059;59.850;10.454;2023-01-15T14:32:57;17.83;;;9.87;;
19798;SDS011;10059;59.850;10.454;2023-01-15T14:35:34;15.93;;;8.80;;
19798;SDS011;10059;59.850;10.454;2023-01-15T14:38:02;14.97;;;9.00;;
19798;SDS011;10059;59.850;10.454;2023-01-15T14:40:32;19.20;;;10.77;;
19798;SDS011;10059;59.850;10.454;2023-01-15T14:43:02;22.57;;;11.30;;
19798;SDS011;10059;59.850;10.454;2023-01-15T14:45:36;20.43;;;10.87;;
19798;SDS011;10059;59.850;10.454;2023-01-15T14:48:14;25.20;;;12.73;;
19798;SDS011;10059;59.850;10.454;2023-01-15T14:50:44;55.97;;;13.20;;
19798;SDS011;10059;59.850;10.454;2023-01-15T14:56:05;28.63;;;15.63;;
19798;SDS011;10059;59.850;10.454;2023-01-15T14:58:41;21.50;;;12.23;;
19798;SDS011;10059;59.850;10.454;2023-01-15T15:01:16;22.37;;;12.43;;
19798;SDS011;10059;59.850;10.454;2023-01-15T15:03:53;21.50;;;11.40;;
19798;SDS011;10059;59.850;10.454;2023-01-15T15:06:23;17.07;;;9.10;;
19798;SDS011;10059;59.850;10.454;2023-01-15T15:08:51;13.40;;;7.57;;